Главная страница
METAR-TAF:

METAR-TAF

Аэропорты :

Яп

Острова Яп, Микронезия

широта: 09-29N, долгота: 138-05E, высота над уровнем моря: 28 м

Текущие метеонаблюдения

Эта сводка был подготовлена 13 минут назад, в 13:51 UTC
Ветер 2 Узел переменных направлений
Температура 26°C
Влажность 89%
Давление 1012 hPa
Видимость: 19.3 км
небольшая облачность на высоте 1600 фута
Рассеянная облачность на высоте 30000 фута

METAR: PTYA 221351Z VRB02KT 12SM FEW016 BKN300 26/24 A2988 RMK SLP118 T02580237

Время: 00:04 (14:04 UTC)

Прогноз

Эта сводка был подготовлена 2 часа и 44 минут назад, в 11:20 UTC
Прогноз действительный с 22-го 12 UTC до 23-го 12 UTC
Ветер 8 Узел от северо-восточный
Видимость: 10 км
небольшая облачность на высоте 1600 фута
Отдельные облака на высоте 3000 фута
ливни в окрестностях

TAF: PTYA 221120Z 2212/2312 05008KT P6SM VCSH FEW016 SCT030

Метеонаблюдения и прогнозы для более 4000 аэропортов (сводки METAR и TAF).

Имеющиеся станции представлены на карте желтыми и красными точками.

Чтобы увидеть название станции, наведите на нее мышь.

Затем щелкните, чтобы увидеть метеонаблюдения и метеопрогнозы.

Управление картой: чтобы увеличить масштаб, щелкните зеленые кнопки с черным крестиком; чтобы уменьшить масштаб, щелкните зеленую кнопку с тире; для просмотра соседних карт щелкайте зеленые стрелки.


METAR-TAF: